Time;durP1;ratioP1;P1;durP2;ratioP2;P2;SDS_P1;SDS_P2;PMS_P1;PMS_P2;Temp;Humidity;BMP_temperature;BMP_pressure;BME280_temperature;BME280_humidity;BME280_pressure;Samples;Min_cycle;Max_cycle;Signal;HPM_P1;HPM_P2
2022/04/19 00:00:36;;;;;;;;;4.00;3.00;;;;;21.47;37.10;100677.56;110492;1259;23272;-55
2022/04/19 00:03:05;;;;;;;;;4.00;4.00;;;;;21.48;37.08;100678.91;110607;1258;19352;-54
2022/04/19 00:05:33;;;;;;;;;5.33;5.33;;;;;21.48;37.18;100677.28;110677;1258;23103;-53
2022/04/19 00:08:00;;;;;;;;;6.00;6.00;;;;;21.48;37.22;100677.99;110698;1258;20428;-55
2022/04/19 00:10:28;;;;;;;;;4.33;4.33;;;;;21.48;37.02;100672.02;110791;1258;19136;-53
2022/04/19 00:12:56;;;;;;;;;5.33;5.00;;;;;21.47;37.08;100669.91;110557;1259;19449;-55
2022/04/19 00:15:23;;;;;;;;;6.00;5.00;;;;;21.48;37.26;100669.44;110533;1259;20286;-55
2022/04/19 00:17:51;;;;;;;;;5.00;4.00;;;;;21.48;37.34;100667.05;110485;1259;19256;-55
2022/04/19 00:20:19;;;;;;;;;5.00;4.00;;;;;21.47;37.26;100662.48;110596;1259;19482;-53
2022/04/19 00:22:46;;;;;;;;;4.00;4.00;;;;;21.48;37.22;100661.09;110651;1258;20548;-53
2022/04/19 00:25:13;;;;;;;;;5.33;5.00;;;;;21.48;37.20;100657.30;110657;1259;19163;-53
2022/04/19 00:27:41;;;;;;;;;4.00;4.00;;;;;21.47;37.11;100650.48;110564;1259;19996;-52
2022/04/19 00:30:08;;;;;;;;;4.00;4.00;;;;;21.47;37.21;100645.94;110610;1258;20464;-53
2022/04/19 00:32:35;;;;;;;;;4.67;4.00;;;;;21.49;37.23;100644.83;110687;1258;19298;-52
2022/04/19 00:35:03;;;;;;;;;6.00;6.00;;;;;21.48;37.05;100645.06;110486;1261;19479;-51
2022/04/19 00:37:30;;;;;;;;;4.67;4.33;;;;;21.48;37.05;100645.08;110525;1259;20253;-52
2022/04/19 00:39:58;;;;;;;;;4.00;4.00;;;;;21.48;36.98;100643.85;110763;1258;19613;-55
2022/04/19 00:42:27;;;;;;;;;4.00;4.00;;;;;21.47;37.25;100638.50;110658;1258;19423;-55
2022/04/19 00:44:55;;;;;;;;;4.00;4.00;;;;;21.47;37.12;100634.71;110665;1259;21766;-56
2022/04/19 00:47:22;;;;;;;;;5.00;5.00;;;;;21.46;37.08;100630.45;110549;1259;19006;-55
2022/04/19 00:49:49;;;;;;;;;5.00;5.00;;;;;21.44;37.34;100624.80;110479;1259;19593;-55
2022/04/19 00:52:16;;;;;;;;;6.00;5.00;;;;;21.44;37.29;100619.32;110715;1258;20641;-54
2022/04/19 00:54:44;;;;;;;;;5.00;5.00;;;;;21.44;37.14;100613.95;110538;1258;23327;-55
2022/04/19 00:57:11;;;;;;;;;4.67;4.33;;;;;21.43;37.20;100601.39;110573;1259;19784;-56
2022/04/19 00:59:38;;;;;;;;;4.00;4.00;;;;;21.44;37.41;100605.73;110590;1258;21692;-52
2022/04/19 01:02:06;;;;;;;;;4.00;4.00;;;;;21.42;37.53;100605.07;110556;1258;19191;-52
2022/04/19 01:04:33;;;;;;;;;4.00;4.00;;;;;21.44;37.22;100611.63;110521;1259;23561;-53
2022/04/19 01:07:01;;;;;;;;;4.00;4.00;;;;;21.45;37.21;100604.76;110578;1258;20513;-53
2022/04/19 01:09:28;;;;;;;;;5.00;5.00;;;;;21.43;37.17;100599.13;110549;1258;19116;-53
2022/04/19 01:14:40;;;;;;;;;5.33;5.33;;;;;21.45;37.30;100576.79;110583;1258;21806;-53
2022/04/19 01:17:08;;;;;;;;;2.00;2.00;;;;;21.44;37.20;100576.44;110524;1259;19185;-53
2022/04/19 01:19:35;;;;;;;;;5.00;5.00;;;;;21.44;37.32;100585.00;110643;1258;19643;-53
2022/04/19 01:22:02;;;;;;;;;5.00;4.00;;;;;21.44;37.15;100585.28;110591;1259;20614;-55
2022/04/19 01:24:30;;;;;;;;;5.00;5.00;;;;;21.45;37.21;100603.27;110620;1259;23733;-55
2022/04/19 01:26:57;;;;;;;;;5.00;5.00;;;;;21.45;37.25;100599.85;110714;1258;19473;-56
2022/04/19 01:29:25;;;;;;;;;4.00;4.00;;;;;21.46;37.30;100592.45;110724;1258;20445;-55
2022/04/19 01:31:52;;;;;;;;;5.00;5.00;;;;;21.46;37.33;100596.60;110604;1259;19207;-56
2022/04/19 01:34:19;;;;;;;;;4.00;4.00;;;;;21.45;37.37;100592.93;110632;1258;19458;-56
2022/04/19 01:36:47;;;;;;;;;5.00;5.00;;;;;21.44;37.22;100586.97;110495;1258;20200;-54
2022/04/19 01:39:14;;;;;;;;;4.67;4.67;;;;;21.44;37.14;100582.61;110505;1258;19636;-57
2022/04/19 01:41:41;;;;;;;;;5.00;5.00;;;;;21.44;37.25;100580.64;110464;1258;19521;-54
2022/04/19 01:44:09;;;;;;;;;4.00;4.00;;;;;21.45;37.39;100577.80;110637;1258;20633;-54
2022/04/19 01:46:37;;;;;;;;;5.33;5.00;;;;;21.43;37.49;100574.25;110463;1258;19211;-58
2022/04/19 01:49:04;;;;;;;;;5.00;4.33;;;;;21.43;37.36;100566.78;110537;1259;19573;-55
2022/04/19 01:51:31;;;;;;;;;4.00;4.00;;;;;21.44;37.14;100561.92;110567;1259;20288;-52
2022/04/19 01:53:59;;;;;;;;;5.00;5.00;;;;;21.44;37.41;100563.39;110546;1258;20870;-54
2022/04/19 01:56:26;;;;;;;;;6.00;5.00;;;;;21.44;37.37;100563.94;110561;1258;19429;-56
2022/04/19 01:58:53;;;;;;;;;5.00;4.00;;;;;21.43;37.42;100565.56;110616;1258;20582;-57
2022/04/19 02:01:21;;;;;;;;;4.33;3.33;;;;;21.43;37.28;100568.01;110817;1258;21248;-54
2022/04/19 02:03:48;;;;;;;;;5.00;4.00;;;;;21.43;37.36;100567.58;110542;1259;23664;-54
2022/04/19 02:06:17;;;;;;;;;4.00;4.00;;;;;21.43;37.41;100571.36;110600;1258;20551;-55
2022/04/19 02:08:44;;;;;;;;;4.00;4.00;;;;;21.43;37.32;100569.67;110629;1258;24058;-53
2022/04/19 02:11:12;;;;;;;;;2.00;2.00;;;;;21.43;37.37;100568.66;110693;1258;19921;-54
2022/04/19 02:13:39;;;;;;;;;5.00;5.00;;;;;21.41;37.40;100571.16;110498;1259;22738;-57
2022/04/19 02:16:09;;;;;;;;;5.00;4.33;;;;;21.43;37.44;100567.78;110596;1258;21516;-52
2022/04/19 02:18:36;;;;;;;;;4.33;4.33;;;;;21.42;37.29;100564.23;110626;1258;23081;-56
2022/04/19 02:21:03;;;;;;;;;4.00;4.00;;;;;21.41;37.24;100565.45;110582;1259;20284;-53
2022/04/19 02:23:31;;;;;;;;;4.67;4.67;;;;;21.41;37.45;100564.66;110568;1258;19194;-55
2022/04/19 02:25:58;;;;;;;;;4.33;4.00;;;;;21.41;37.34;100564.11;110505;1259;19425;-54
2022/04/19 02:28:25;;;;;;;;;6.00;5.00;;;;;21.42;37.29;100556.07;110507;1259;23008;-55
2022/04/19 02:30:53;;;;;;;;;4.00;4.00;;;;;21.41;37.48;100554.13;110505;1261;19019;-54
2022/04/19 02:33:20;;;;;;;;;4.50;4.50;;;;;21.41;37.36;100552.55;110644;1258;23394;-54
2022/04/19 02:35:47;;;;;;;;;2.00;2.00;;;;;21.41;37.44;100552.90;110503;1258;20287;-55
2022/04/19 02:38:15;;;;;;;;;5.00;5.00;;;;;21.41;37.51;100552.86;110523;1259;19111;-55
2022/04/19 02:40:42;;;;;;;;;4.67;4.00;;;;;21.41;37.46;100555.72;110503;1259;19737;-54
2022/04/19 02:43:11;;;;;;;;;4.33;2.67;;;;;21.41;37.32;100551.09;110478;1258;20279;-54
2022/04/19 02:45:38;;;;;;;;;5.00;4.00;;;;;21.40;37.51;100547.69;110550;1258;24741;-51
2022/04/19 02:48:06;;;;;;;;;5.00;5.00;;;;;21.42;37.30;100553.17;110603;1258;19502;-55
2022/04/19 02:50:34;;;;;;;;;5.00;5.00;;;;;21.40;37.46;100542.99;110600;1259;20171;-53
2022/04/19 02:53:01;;;;;;;;;4.00;4.00;;;;;21.41;37.29;100548.58;110574;1259;19201;-56
2022/04/19 02:55:28;;;;;;;;;5.00;4.33;;;;;21.39;37.36;100545.06;110758;1258;22711;-56
2022/04/19 02:57:56;;;;;;;;;4.00;4.00;;;;;21.41;37.57;100545.98;110768;1258;20614;-55
2022/04/19 03:00:24;;;;;;;;;4.33;4.33;;;;;21.40;37.69;100545.89;110625;1259;19119;-53
2022/04/19 03:02:51;;;;;;;;;4.00;4.00;;;;;21.39;37.51;100547.46;110522;1258;19443;-55
2022/04/19 03:05:19;;;;;;;;;5.00;5.00;;;;;21.39;37.44;100548.79;110788;1258;20299;-55
2022/04/19 03:07:46;;;;;;;;;3.33;3.33;;;;;21.37;37.64;100543.48;110351;1259;19232;-57
2022/04/19 03:10:14;;;;;;;;;4.00;4.00;;;;;21.37;37.54;100541.42;110473;1258;19465;-58
2022/04/19 03:12:41;;;;;;;;;5.00;4.00;;;;;21.37;37.64;100545.51;110522;1258;20343;-56
2022/04/19 03:15:11;;;;;;;;;4.67;4.67;;;;;21.37;37.32;100543.91;110548;1259;19302;-57
2022/04/19 03:17:39;;;;;;;;;4.67;4.67;;;;;21.38;37.52;100548.20;110526;1259;23385;-57
2022/04/19 03:20:08;;;;;;;;;4.00;4.00;;;;;21.38;37.45;100542.29;110509;1258;20898;-58
2022/04/19 03:28:01;;;;;;;;;4.00;4.00;;;;;21.38;37.53;100542.04;110577;1258;20784;-54
2022/04/19 03:30:29;;;;;;;;;4.50;4.50;;;;;21.38;37.58;100546.82;110529;1258;19335;-54
2022/04/19 03:32:56;;;;;;;;;5.00;5.00;;;;;21.38;37.63;100544.16;110529;1259;23215;-55
2022/04/19 03:35:23;;;;;;;;;5.00;5.00;;;;;21.38;37.60;100540.48;110621;1258;20276;-57
2022/04/19 03:37:51;;;;;;;;;5.33;4.00;;;;;21.39;37.46;100542.20;110633;1258;19096;-55
2022/04/19 03:40:18;;;;;;;;;4.67;4.00;;;;;21.40;37.49;100543.77;110589;1258;20381;-52
2022/04/19 03:42:45;;;;;;;;;4.00;4.00;;;;;21.39;37.73;100545.11;110614;1258;20515;-54
2022/04/19 03:45:13;;;;;;;;;4.00;4.00;;;;;21.38;37.69;100547.02;110571;1259;19133;-56
2022/04/19 03:47:40;;;;;;;;;4.00;4.00;;;;;21.39;37.63;100549.52;110434;1261;19464;-54
2022/04/19 03:50:07;;;;;;;;;4.00;4.00;;;;;21.39;37.67;100546.95;110569;1258;23148;-56
2022/04/19 03:52:36;;;;;;;;;5.00;4.67;;;;;21.39;37.76;100549.71;110513;1259;19275;-55
2022/04/19 03:55:03;;;;;;;;;5.00;4.33;;;;;21.40;37.58;100544.70;110561;1258;20797;-53
2022/04/19 03:57:31;;;;;;;;;4.00;4.00;;;;;21.39;37.44;100544.91;110596;1258;20339;-54
2022/04/19 03:59:58;;;;;;;;;6.00;4.00;;;;;21.38;37.64;100540.52;110505;1259;19246;-54
2022/04/19 04:02:26;;;;;;;;;8.00;5.00;;;;;21.37;37.60;100538.58;110662;1258;20854;-51
2022/04/19 04:04:53;;;;;;;;;4.00;4.00;;;;;21.39;37.53;100531.67;110519;1259;20125;-53
2022/04/19 04:07:21;;;;;;;;;5.00;5.00;;;;;21.40;37.73;100535.39;110696;1258;19198;-53
2022/04/19 04:09:49;;;;;;;;;4.50;4.00;;;;;21.39;37.51;100533.90;110515;1259;22671;-56
2022/04/19 04:12:16;;;;;;;;;4.50;4.50;;;;;21.38;37.53;100530.36;110361;1258;23590;-56
2022/04/19 04:14:44;;;;;;;;;5.33;5.00;;;;;21.36;37.59;100524.93;110599;1258;19323;-56
2022/04/19 04:17:11;;;;;;;;;4.00;4.00;;;;;21.35;37.55;100520.77;110534;1258;20101;-52
2022/04/19 04:19:38;;;;;;;;;4.00;4.00;;;;;21.37;37.69;100521.17;110518;1259;20242;-52
2022/04/19 04:22:06;;;;;;;;;4.00;4.00;;;;;21.36;37.65;100517.89;110793;1258;19278;-54
2022/04/19 04:24:33;;;;;;;;;5.00;5.00;;;;;21.34;37.69;100518.06;110555;1258;19480;-53
2022/04/19 04:27:00;;;;;;;;;5.33;5.00;;;;;21.37;37.48;100522.85;110551;1259;20378;-54
2022/04/19 04:29:30;;;;;;;;;5.00;5.00;;;;;21.36;37.83;100524.42;110562;1258;19093;-54
2022/04/19 04:31:57;;;;;;;;;5.00;4.33;;;;;21.36;37.63;100532.02;110578;1258;22710;-53
2022/04/19 04:34:25;;;;;;;;;4.67;4.00;;;;;21.35;37.70;100532.88;110490;1258;20296;-51
2022/04/19 04:36:52;;;;;;;;;4.00;4.00;;;;;21.35;37.56;100539.43;110515;1259;20927;-53
2022/04/19 04:39:19;;;;;;;;;4.00;4.00;;;;;21.36;37.67;100542.96;110536;1259;20301;-55
2022/04/19 04:41:47;;;;;;;;;4.00;4.00;;;;;21.35;37.67;100545.05;110518;1259;20677;-52
2022/04/19 04:44:14;;;;;;;;;5.00;5.00;;;;;21.36;37.69;100550.02;110504;1259;19016;-53
2022/04/19 04:52:08;;;;;;;;;4.50;4.50;;;;;21.35;37.42;100546.65;110753;1258;22987;-51
2022/04/19 04:54:36;;;;;;;;;4.00;4.00;;;;;21.37;37.78;100548.45;110682;1259;19509;-53
2022/04/19 04:57:03;;;;;;;;;4.00;4.00;;;;;21.39;37.39;100550.23;110615;1258;20978;-54
2022/04/19 04:59:31;;;;;;;;;4.00;4.00;;;;;21.40;37.49;100552.84;110571;1258;19166;-53
2022/04/19 05:01:58;;;;;;;;;5.33;5.00;;;;;21.40;37.57;100551.41;110450;1259;19466;-58
2022/04/19 05:04:25;;;;;;;;;2.00;2.00;;;;;21.40;37.46;100550.04;110556;1259;20897;-55
2022/04/19 05:06:53;;;;;;;;;4.00;4.00;;;;;21.40;37.81;100550.31;110643;1259;22918;-57
2022/04/19 05:09:20;;;;;;;;;4.00;4.00;;;;;21.39;37.71;100548.92;110714;1258;20003;-56
2022/04/19 05:11:50;;;;;;;;;4.00;4.00;;;;;21.44;37.78;100550.00;110693;1258;20333;-54
2022/04/19 05:14:17;;;;;;;;;4.00;4.00;;;;;21.46;37.67;100552.42;110661;1259;22997;-56
2022/04/19 05:16:45;;;;;;;;;4.33;4.00;;;;;21.46;37.86;100553.83;110481;1259;20283;-53
2022/04/19 05:19:12;;;;;;;;;4.00;4.00;;;;;21.52;38.19;100552.85;110558;1259;20260;-55
2022/04/19 05:21:39;;;;;;;;;4.00;4.00;;;;;21.55;38.34;100550.36;110721;1258;28553;-57
2022/04/19 05:24:07;;;;;;;;;5.00;4.50;;;;;21.57;38.54;100551.81;110644;1258;19485;-56
2022/04/19 05:26:34;;;;;;;;;4.33;4.00;;;;;21.59;39.18;100551.92;110626;1258;23144;-54
2022/04/19 05:29:01;;;;;;;;;4.67;4.33;;;;;21.63;39.08;100552.39;110650;1258;19674;-55
2022/04/19 05:31:29;;;;;;;;;5.00;5.00;;;;;21.68;39.58;100554.11;110425;1261;19499;-57
2022/04/19 05:33:56;;;;;;;;;5.00;5.00;;;;;21.71;39.55;100556.37;110719;1258;21815;-58
2022/04/19 05:36:23;;;;;;;;;5.33;5.33;;;;;21.71;39.35;100561.05;110624;1258;19241;-54
2022/04/19 05:38:52;;;;;;;;;5.00;5.00;;;;;21.70;39.93;100560.02;110553;1258;20899;-55
2022/04/19 05:41:20;;;;;;;;;4.67;4.67;;;;;21.67;39.67;100562.58;110517;1259;22189;-56
2022/04/19 05:43:48;;;;;;;;;5.00;4.67;;;;;21.59;39.79;100558.60;110681;1258;19115;-55
2022/04/19 05:46:17;;;;;;;;;4.33;4.00;;;;;21.58;39.66;100562.58;110677;1258;22942;-54
2022/04/19 05:48:44;;;;;;;;;5.00;4.00;;;;;21.54;39.92;100568.52;110532;1259;20844;-54
2022/04/19 05:51:12;;;;;;;;;6.67;4.67;;;;;21.55;40.08;100573.17;110487;1258;19430;-57
2022/04/19 05:53:39;;;;;;;;;6.00;4.67;;;;;21.59;40.18;100571.19;110596;1259;20752;-53
2022/04/19 05:56:07;;;;;;;;;4.00;4.00;;;;;21.64;40.32;100573.73;110602;1258;20355;-57
2022/04/19 05:58:34;;;;;;;;;6.00;5.00;;;;;21.69;40.58;100581.31;110762;1258;19418;-55
2022/04/19 06:01:02;;;;;;;;;4.33;4.33;;;;;21.70;40.43;100585.29;110597;1258;19501;-55
2022/04/19 06:06:14;;;;;;;;;4.67;4.67;;;;;21.69;40.41;100583.07;110531;1258;22915;-55
2022/04/19 06:08:42;;;;;;;;;6.00;5.33;;;;;21.67;40.34;100585.23;110403;1258;19563;-54
2022/04/19 06:11:12;;;;;;;;;5.00;5.00;;;;;21.65;40.24;100591.66;110305;1259;20646;-57
2022/04/19 06:13:39;;;;;;;;;8.33;6.67;;;;;21.61;40.28;100594.21;110566;1258;23782;-56
2022/04/19 06:16:07;;;;;;;;;8.00;6.00;;;;;21.60;39.95;100593.23;102624;1258;10321372;-57
2022/04/19 06:18:34;;;;;;;;;4.00;4.00;;;;;21.59;39.94;100594.10;110443;1258;19093;-56
2022/04/19 06:21:04;;;;;;;;;5.00;4.00;;;;;21.63;39.89;100597.16;110309;1258;19638;-56
2022/04/19 06:23:32;;;;;;;;;6.00;6.00;;;;;21.67;40.56;100596.94;110208;1258;20227;-55
2022/04/19 06:25:59;;;;;;;;;6.67;5.67;;;;;21.68;40.91;100593.05;110120;1258;19829;-53
2022/04/19 06:28:27;;;;;;;;;6.00;6.00;;;;;21.73;41.16;100600.46;110121;1258;23138;-52
2022/04/19 06:30:54;;;;;;;;;6.00;6.00;;;;;21.75;41.70;100597.23;111527;1258;20375;-57
2022/04/19 06:33:21;;;;;;;;;6.67;5.00;;;;;21.83;42.69;100597.11;110064;1258;19960;-54
2022/04/19 06:35:49;;;;;;;;;8.50;8.00;;;;;21.94;43.98;100600.02;110183;1258;19379;-58
2022/04/19 06:38:16;;;;;;;;;3.00;3.00;;;;;22.06;44.37;100606.04;110092;1259;20511;-55
2022/04/19 06:40:43;;;;;;;;;5.33;5.33;;;;;22.13;43.71;100605.74;110149;1258;19448;-52
2022/04/19 06:43:11;;;;;;;;;6.50;6.00;;;;;22.18;43.04;100616.95;110240;1258;19674;-56
2022/04/19 06:45:39;;;;;;;;;6.67;5.00;;;;;22.21;42.66;100626.02;110106;1258;20286;-56
2022/04/19 06:48:06;;;;;;;;;9.00;6.00;;;;;22.21;42.35;100621.17;110092;1258;19381;-58
2022/04/19 06:50:58;;;;;;;;;6.33;5.33;;;;;22.18;42.32;100624.66;110220;1258;19492;-57
2022/04/19 06:53:50;;;;;;;;;7.00;6.00;;;;;22.12;42.19;100627.86;110300;1258;20364;-57
2022/04/19 06:56:45;;;;;;;;;8.67;6.00;;;;;22.09;42.24;100629.07;110006;1258;27059;-56
2022/04/19 06:59:37;;;;;;;;;5.00;5.00;;;;;22.16;42.55;100642.66;110389;1258;19731;-54
2022/04/19 07:02:29;;;;;;;;;5.67;5.00;;;;;22.22;42.34;100639.08;110678;1258;20280;-57
2022/04/19 07:04:56;;;;;;;;;7.00;6.33;;;;;22.22;42.39;100649.42;110707;1258;19225;-55
2022/04/19 07:07:23;;;;;;;;;6.00;6.00;;;;;22.18;42.24;100650.05;110498;1258;19485;-54
2022/04/19 07:09:51;;;;;;;;;5.00;5.00;;;;;22.17;42.25;100660.22;110557;1258;22704;-55
2022/04/19 07:12:19;;;;;;;;;9.00;6.33;;;;;22.14;42.07;100654.17;110620;1259;19223;-54
2022/04/19 07:14:46;;;;;;;;;7.33;6.00;;;;;22.14;42.07;100665.44;110523;1259;23766;-54
2022/04/19 07:17:14;;;;;;;;;6.00;6.00;;;;;22.12;41.51;100669.56;110584;1258;20232;-56
2022/04/19 07:27:56;;;;;;;;;6.00;6.00;;;;;22.05;41.34;100672.77;110633;1258;24806;-56
2022/04/19 07:30:23;;;;;;;;;6.00;6.00;;;;;22.05;41.22;100680.89;110648;1258;19477;-54
2022/04/19 07:32:50;;;;;;;;;5.00;5.00;;;;;22.07;41.72;100681.93;110540;1259;25423;-53
2022/04/19 07:35:18;;;;;;;;;7.00;6.33;;;;;22.10;41.69;100681.45;110574;1258;19240;-55
2022/04/19 07:37:45;;;;;;;;;8.00;6.33;;;;;22.12;41.20;100684.80;110612;1258;19522;-54
2022/04/19 07:40:13;;;;;;;;;5.67;5.33;;;;;22.18;40.98;100687.08;110682;1258;20434;-52
2022/04/19 07:42:40;;;;;;;;;6.00;5.00;;;;;22.21;40.83;100688.13;110716;1258;19256;-55
2022/04/19 07:45:08;;;;;;;;;6.00;5.00;;;;;22.24;40.95;100692.50;110632;1258;19420;-59
2022/04/19 07:47:36;;;;;;;;;9.00;6.00;;;;;22.26;40.89;100691.35;110597;1258;22945;-55
2022/04/19 07:50:03;;;;;;;;;5.00;5.00;;;;;22.25;40.72;100701.60;110538;1258;19177;-57
2022/04/19 07:52:31;;;;;;;;;6.00;6.00;;;;;22.25;40.76;100699.11;110636;1258;19412;-56
2022/04/19 07:54:58;;;;;;;;;5.00;5.00;;;;;22.25;40.63;100695.77;110687;1258;23558;-54
2022/04/19 07:57:25;;;;;;;;;6.67;6.67;;;;;22.27;40.63;100705.73;110355;1261;19243;-57
2022/04/19 07:59:53;;;;;;;;;7.33;6.33;;;;;22.30;40.39;100704.47;110468;1260;19641;-57
2022/04/19 08:02:20;;;;;;;;;6.00;6.00;;;;;22.33;40.43;100704.27;110447;1260;20386;-53
2022/04/19 08:04:48;;;;;;;;;9.00;7.00;;;;;22.34;40.35;100708.23;110514;1261;19112;-54
2022/04/19 08:07:15;;;;;;;;;8.00;6.67;;;;;22.36;40.34;100707.92;110282;1261;19777;-52
2022/04/19 08:09:42;;;;;;;;;6.00;6.00;;;;;22.40;40.26;100715.41;110365;1261;20303;-53
2022/04/19 08:12:11;;;;;;;;;6.00;6.00;;;;;22.39;41.04;100711.37;110385;1260;23658;-55
2022/04/19 08:14:41;;;;;;;;;6.67;6.00;;;;;22.41;41.64;100719.33;110465;1261;23514;-55
2022/04/19 08:17:08;;;;;;;;;7.00;6.00;;;;;22.42;41.28;100712.00;110379;1261;20317;-55
2022/04/19 08:19:35;;;;;;;;;6.67;6.67;;;;;22.42;40.92;100713.59;110438;1261;19159;-53
2022/04/19 08:22:03;;;;;;;;;6.00;6.00;;;;;22.44;40.90;100720.05;110413;1261;19530;-57
2022/04/19 08:24:30;;;;;;;;;9.00;9.00;;;;;22.45;40.69;100721.52;110419;1259;20432;-57
2022/04/19 08:26:57;;;;;;;;;6.00;6.00;;;;;22.46;40.61;100729.11;110465;1260;19643;-58
2022/04/19 08:29:25;;;;;;;;;6.00;6.00;;;;;22.46;40.52;100728.86;110478;1261;19444;-53
2022/04/19 08:31:52;;;;;;;;;6.00;6.00;;;;;22.47;40.54;100735.85;110410;1260;20236;-54
2022/04/19 08:34:20;;;;;;;;;67.67;48.33;;;;;22.45;40.62;100736.91;110283;1261;29840;-55
2022/04/19 08:36:48;;;;;;;;;78.00;57.00;;;;;22.48;40.61;100734.89;110328;1261;23580;-58
2022/04/19 08:39:15;;;;;;;;;85.00;55.50;;;;;22.47;40.58;100737.90;110395;1260;20562;-55
2022/04/19 08:41:42;;;;;;;;;115.00;83.50;;;;;22.45;40.71;100738.80;110435;1261;24292;-57
2022/04/19 08:44:11;;;;;;;;;121.67;93.00;;;;;22.44;40.86;100743.88;110383;1261;19655;-57
2022/04/19 08:46:38;;;;;;;;;129.00;93.00;;;;;22.41;40.94;100742.61;110397;1261;23851;-54
2022/04/19 08:49:06;;;;;;;;;92.33;67.33;;;;;22.41;40.93;100742.75;110390;1260;19408;-57
2022/04/19 08:51:34;;;;;;;;;91.00;65.50;;;;;22.44;41.12;100742.45;110244;1260;19581;-56
2022/04/19 08:59:31;;;;;;;;;79.00;59.33;;;;;22.42;41.01;100762.00;110327;1260;19612;-57
2022/04/19 09:01:59;;;;;;;;;74.67;54.67;;;;;22.33;40.45;100762.53;110390;1261;22967;-55
2022/04/19 09:04:26;;;;;;;;;62.33;50.00;;;;;22.11;38.34;100774.41;110437;1260;22895;-57
2022/04/19 09:06:54;;;;;;;;;60.67;47.67;;;;;21.56;37.45;100774.88;110446;1261;19601;-55
2022/04/19 09:09:21;;;;;;;;;52.50;42.00;;;;;21.52;37.15;100762.06;110366;1261;20402;-57
2022/04/19 09:11:49;;;;;;;;;53.33;42.33;;;;;21.58;36.10;100771.27;110404;1260;19489;-56
2022/04/19 09:14:17;;;;;;;;;45.33;41.00;;;;;21.49;35.39;100773.12;110473;1261;19748;-54
2022/04/19 09:16:44;;;;;;;;;45.67;35.33;;;;;21.43;35.15;100766.08;110388;1261;20822;-53
2022/04/19 09:19:12;;;;;;;;;41.33;34.67;;;;;21.50;34.60;100768.72;110393;1261;23591;-51
2022/04/19 09:21:39;;;;;;;;;31.67;26.67;;;;;21.53;34.13;100768.45;110369;1261;19874;-55
2022/04/19 09:24:07;;;;;;;;;30.00;25.67;;;;;21.38;33.31;100774.48;110399;1261;23266;-59
2022/04/19 09:26:34;;;;;;;;;30.00;28.50;;;;;21.18;33.10;100779.65;110327;1261;19286;-56
2022/04/19 09:29:02;;;;;;;;;27.67;24.67;;;;;21.16;32.90;100782.79;110294;1261;19628;-54
2022/04/19 09:31:30;;;;;;;;;38.00;26.00;;;;;21.05;32.52;100789.15;110325;1260;20343;-54
2022/04/19 09:33:57;;;;;;;;;24.00;21.00;;;;;20.92;32.32;100787.65;110410;1261;21193;-54
2022/04/19 09:36:25;;;;;;;;;24.00;21.00;;;;;20.58;32.07;100800.92;110370;1261;19572;-59
2022/04/19 09:38:52;;;;;;;;;24.00;22.00;;;;;20.37;32.17;100796.18;110434;1261;22991;-57
2022/04/19 09:41:19;;;;;;;;;22.33;19.00;;;;;20.58;31.64;100792.18;110428;1261;19336;-57
2022/04/19 09:43:46;;;;;;;;;20.00;18.00;;;;;20.90;31.83;100794.53;110365;1260;23148;-58
2022/04/19 09:46:14;;;;;;;;;18.00;17.00;;;;;21.16;32.07;100800.58;110398;1261;20587;-56
2022/04/19 09:48:42;;;;;;;;;20.33;17.00;;;;;21.36;32.60;100802.52;110389;1261;22361;-53
2022/04/19 09:51:09;;;;;;;;;20.00;17.00;;;;;21.50;32.98;100799.88;110466;1261;21141;-56
2022/04/19 09:53:37;;;;;;;;;20.33;17.00;;;;;21.60;33.36;100804.52;110456;1261;20362;-55
2022/04/19 09:56:04;;;;;;;;;21.33;18.00;;;;;21.70;33.72;100799.77;110403;1261;19123;-54
2022/04/19 09:58:31;;;;;;;;;25.00;18.00;;;;;21.76;34.14;100802.48;110398;1260;23074;-55
2022/04/19 10:00:59;;;;;;;;;25.00;19.33;;;;;21.82;35.51;100798.14;110399;1261;20488;-53
2022/04/19 10:08:58;;;;;;;;;25.00;19.33;;;;;21.92;36.72;100802.18;110375;1261;20333;-56
2022/04/19 10:11:26;;;;;;;;;21.67;17.67;;;;;21.94;36.86;100796.14;110356;1261;19217;-52
2022/04/19 10:13:53;;;;;;;;;18.33;15.33;;;;;21.96;37.29;100802.89;110279;1261;19961;-53
2022/04/19 10:16:21;;;;;;;;;18.33;17.00;;;;;21.95;37.22;100808.38;110408;1261;20351;-58
2022/04/19 10:18:48;;;;;;;;;22.00;21.00;;;;;21.96;37.54;100805.70;110323;1261;23450;-54
2022/04/19 10:21:15;;;;;;;;;17.67;17.67;;;;;22.01;38.47;100807.51;110400;1261;19473;-57
2022/04/19 10:23:43;;;;;;;;;21.50;18.50;;;;;22.01;37.91;100812.93;110301;1261;23710;-55
2022/04/19 10:26:10;;;;;;;;;21.00;15.00;;;;;21.98;37.51;100803.88;110400;1261;19524;-54
2022/04/19 10:28:37;;;;;;;;;18.67;14.00;;;;;21.98;37.51;100812.61;110422;1260;22958;-56
2022/04/19 10:31:05;;;;;;;;;19.67;17.00;;;;;21.99;37.73;100815.40;110412;1261;20332;-58
2022/04/19 10:33:33;;;;;;;;;18.33;15.00;;;;;21.98;37.80;100814.84;110401;1261;23023;-53
2022/04/19 10:36:00;;;;;;;;;22.33;18.33;;;;;21.97;37.57;100817.14;110434;1261;19782;-53
2022/04/19 10:38:27;;;;;;;;;13.67;13.00;;;;;21.94;37.66;100818.73;110400;1260;20296;-59
2022/04/19 10:40:56;;;;;;;;;15.00;12.00;;;;;21.89;37.49;100816.95;110366;1261;19284;-55
2022/04/19 10:43:24;;;;;;;;;13.00;11.67;;;;;21.73;36.48;100829.08;110343;1261;23117;-53
2022/04/19 10:45:52;;;;;;;;;13.00;13.00;;;;;21.24;35.48;100827.70;110429;1260;23013;-54
2022/04/19 10:48:20;;;;;;;;;12.67;12.00;;;;;21.05;34.62;100824.96;110435;1262;19106;-55
2022/04/19 10:50:51;;;;;;;;;12.50;12.00;;;;;20.94;34.11;100829.49;110469;1260;23337;-55
2022/04/19 10:53:18;;;;;;;;;16.00;10.00;;;;;20.70;33.78;100826.02;110353;1260;23317;-54
2022/04/19 10:55:45;;;;;;;;;13.00;12.00;;;;;20.83;32.97;100826.39;110389;1262;19203;-54
2022/04/19 10:58:20;;;;;;;;;13.67;12.67;;;;;20.95;33.13;100827.16;110438;1261;19499;-56
2022/04/19 11:00:48;;;;;;;;;13.00;10.67;;;;;20.71;32.66;100825.66;110420;1261;21052;-57
2022/04/19 11:03:15;;;;;;;;;12.67;12.67;;;;;20.62;31.97;100824.15;110712;1258;19902;-56
2022/04/19 11:05:43;;;;;;;;;12.50;10.00;;;;;20.49;31.38;100825.01;110737;1258;19560;-55
2022/04/19 11:08:10;;;;;;;;;9.67;9.67;;;;;20.17;31.02;100820.98;110562;1258;24493;-53
2022/04/19 11:10:37;;;;;;;;;10.50;10.50;;;;;20.09;30.75;100821.48;110530;1258;19223;-56
2022/04/19 11:13:05;;;;;;;;;12.33;12.00;;;;;20.10;30.65;100819.41;110518;1259;19572;-58
2022/04/19 11:15:32;;;;;;;;;10.00;10.00;;;;;20.14;30.45;100824.34;110593;1259;20511;-56
2022/04/19 11:17:59;;;;;;;;;12.67;9.67;;;;;20.27;30.28;100817.80;110742;1258;23735;-55
2022/04/19 11:20:26;;;;;;;;;11.33;9.00;;;;;20.59;30.21;100815.30;110533;1258;19506;-52
2022/04/19 11:22:57;;;;;;;;;8.00;8.00;;;;;20.87;30.69;100822.20;110421;1261;23545;-56
2022/04/19 11:25:24;;;;;;;;;7.33;6.00;;;;;21.07;30.75;100817.69;110415;1261;19345;-52
2022/04/19 11:27:51;;;;;;;;;9.00;9.00;;;;;21.21;30.69;100818.72;110426;1261;19509;-58
2022/04/19 11:30:19;;;;;;;;;7.33;7.33;;;;;21.34;30.76;100824.13;110456;1260;23613;-57
2022/04/19 11:32:46;;;;;;;;;9.33;9.33;;;;;21.42;31.10;100825.98;110546;1258;19138;-55
2022/04/19 11:35:13;;;;;;;;;8.33;8.00;;;;;21.50;32.15;100823.56;110660;1258;24217;-57
2022/04/19 11:37:41;;;;;;;;;9.33;8.67;;;;;21.58;32.34;100827.81;110570;1258;20232;-55
2022/04/19 11:48:23;;;;;;;;;12.67;9.33;;;;;21.75;33.98;100816.05;110726;1258;19830;-54
2022/04/19 11:50:51;;;;;;;;;13.00;11.33;;;;;21.78;34.41;100818.64;110615;1259;19844;-54
2022/04/19 11:53:19;;;;;;;;;9.33;8.67;;;;;21.82;34.24;100817.25;110686;1259;23355;-53
2022/04/19 11:55:46;;;;;;;;;9.00;9.00;;;;;21.82;34.41;100811.44;110708;1258;19226;-55
2022/04/19 11:58:14;;;;;;;;;10.00;9.00;;;;;21.80;34.84;100815.05;110543;1258;22891;-60
2022/04/19 12:00:41;;;;;;;;;8.00;8.00;;;;;21.84;35.14;100810.83;110504;1258;21818;-54